KPMU/PMU METAR and TAF weather

Enter ICAO airport designator
Station Type Date Time Source
KPMU METAR 2020/01/26 03:55 UTC NOAA

KPMU 260355Z AUTO 00000KT 10SM OVC110 04/03 A3014 RMK AO2


Station Type Date Time Source
KPMU Decoded METAR 2020/01/26 03:55 UTC NOAA

Station name not available
Jan 25, 2020 - 10:55 PM EST / 2020.01.26 0355 UTC
Wind: Calm:0
Visibility: 10 mile(s):0
Sky conditions: overcast
Temperature: 39 F (4 C)
Dew Point: 37 F (3 C)
Relative Humidity: 93%
Pressure (altimeter): 30.14 in. Hg (1020 hPa)
ob: KPMU 260355Z AUTO 00000KT 10SM OVC110 04/03 A3014 RMK AO2
cycle: 4

Station Type Date Time Source
KPMU TAF UTC NOAA

Error!

Example: see airport list